createdAt,value
2019-02-05T00:02:26.227Z,8.97
2019-02-05T00:06:31.687Z,9.70
2019-02-05T00:10:37.108Z,8.13
2019-02-05T00:14:42.588Z,12.57
2019-02-05T00:18:48.102Z,8.07
2019-02-05T00:22:53.825Z,9.07
2019-02-05T00:26:59.170Z,8.73
2019-02-05T00:31:05.373Z,9.60
2019-02-05T00:35:10.997Z,8.17
2019-02-05T00:39:16.399Z,11.83
2019-02-05T00:43:22.139Z,6.93
2019-02-05T00:47:27.700Z,9.97
2019-02-05T00:51:33.410Z,9.67
2019-02-05T00:55:38.724Z,8.43
2019-02-05T00:59:44.157Z,8.27
2019-02-05T01:03:49.569Z,7.73
2019-02-05T01:07:55.585Z,9.93
2019-02-05T01:12:01.452Z,7.83
2019-02-05T01:16:07.632Z,9.13
2019-02-05T01:20:16.541Z,9.20
2019-02-05T01:24:21.962Z,7.40
2019-02-05T01:28:27.380Z,8.50
2019-02-05T01:32:32.781Z,10.97
2019-02-05T01:36:38.238Z,10.23
2019-02-05T01:40:43.654Z,11.03
2019-02-05T01:44:49.200Z,9.67
2019-02-05T01:48:54.885Z,9.60
2019-02-05T01:53:03.773Z,10.20
2019-02-05T01:57:09.248Z,10.10
2019-02-05T02:01:14.983Z,9.53
2019-02-05T02:05:20.477Z,9.37
2019-02-05T02:09:26.080Z,12.90
2019-02-05T02:13:31.506Z,9.43
2019-02-05T02:17:37.296Z,9.90
2019-02-05T02:21:42.733Z,9.80
2019-02-05T02:25:48.058Z,10.77
2019-02-05T02:29:53.824Z,9.87
2019-02-05T02:33:59.235Z,10.90
2019-02-05T02:38:05.310Z,12.87
2019-02-05T02:42:10.965Z,11.47
2019-02-05T02:46:17.034Z,13.13
2019-02-05T02:50:22.801Z,10.67
2019-02-05T02:54:28.243Z,12.43
2019-02-05T02:58:33.496Z,11.17
2019-02-05T03:02:39.349Z,13.07
2019-02-05T03:06:44.680Z,10.10
2019-02-05T03:10:50.121Z,11.53
2019-02-05T03:14:55.879Z,10.73
2019-02-05T03:19:01.311Z,12.00
2019-02-05T03:23:07.135Z,11.70
2019-02-05T03:27:17.847Z,15.33
2019-02-05T03:31:19.803Z,13.70
2019-02-05T03:35:25.512Z,13.43
2019-02-05T03:39:30.851Z,13.43
2019-02-05T03:43:37.985Z,13.50
2019-02-05T03:47:43.778Z,12.37
2019-02-05T03:52:07.040Z,10.97
2019-02-05T03:57:14.908Z,12.93
2019-02-05T04:02:04.310Z,13.47
2019-02-05T04:07:04.281Z,11.00
2019-02-05T04:12:01.875Z,11.97
2019-02-05T04:17:20.892Z,13.70
2019-02-05T04:22:20.731Z,14.70
2019-02-05T04:27:43.852Z,18.83
2019-02-05T04:32:25.773Z,14.47
2019-02-05T04:37:25.804Z,15.77
2019-02-05T04:41:54.788Z,18.30
2019-02-05T04:46:57.992Z,23.47
2019-02-05T04:52:06.415Z,16.03
2019-02-05T04:56:46.691Z,16.83
2019-02-05T05:02:01.420Z,21.37
2019-02-05T05:07:01.379Z,17.07
2019-02-05T05:11:07.231Z,16.73
2019-02-05T05:15:14.081Z,18.17
2019-02-05T05:19:20.303Z,18.13
2019-02-05T05:23:26.033Z,18.40
2019-02-05T05:27:32.022Z,18.40
2019-02-05T05:31:37.446Z,22.30
2019-02-05T05:35:44.541Z,19.60
2019-02-05T05:39:50.053Z,21.23
2019-02-05T05:43:55.472Z,23.07
2019-02-05T05:48:00.961Z,22.40
2019-02-05T05:52:06.740Z,26.03
2019-02-05T05:56:12.514Z,33.57
2019-02-05T06:00:20.161Z,24.97
2019-02-05T06:04:25.789Z,30.03
2019-02-05T06:08:31.238Z,28.43
2019-02-05T06:12:36.759Z,27.80
2019-02-05T06:16:42.181Z,37.47
2019-02-05T06:20:47.953Z,31.50
2019-02-05T06:24:53.333Z,28.87
2019-02-05T06:28:58.785Z,38.77
2019-02-05T06:33:04.254Z,33.67
2019-02-05T06:37:10.057Z,32.73
2019-02-05T06:41:15.622Z,34.97
2019-02-05T06:45:21.053Z,32.63
2019-02-05T06:49:26.498Z,34.50
2019-02-05T06:53:31.918Z,40.27
2019-02-05T06:57:37.335Z,41.23
2019-02-05T07:01:43.539Z,36.50
2019-02-05T07:05:49.312Z,43.77
2019-02-05T07:09:54.809Z,39.00
2019-02-05T07:14:00.295Z,41.00
2019-02-05T07:18:06.045Z,40.47
2019-02-05T07:22:12.971Z,47.23
2019-02-05T07:26:18.326Z,39.03
2019-02-05T07:30:25.246Z,41.13
2019-02-05T07:34:30.961Z,47.50
2019-02-05T07:38:36.425Z,48.33
2019-02-05T07:42:42.163Z,44.73
2019-02-05T07:46:47.754Z,48.70
2019-02-05T07:50:53.190Z,49.77
2019-02-05T07:54:58.747Z,45.67
2019-02-05T07:59:10.444Z,48.87
2019-02-05T08:03:11.598Z,42.70
2019-02-05T08:07:17.068Z,40.67
2019-02-05T08:11:22.751Z,42.43
2019-02-05T08:15:31.146Z,48.63
2019-02-05T08:19:36.553Z,44.77
2019-02-05T08:23:42.008Z,38.77
2019-02-05T08:27:47.447Z,43.00
2019-02-05T08:31:53.088Z,42.00
2019-02-05T08:35:58.542Z,46.60
2019-02-05T08:40:05.796Z,42.97
2019-02-05T08:44:11.254Z,45.50
2019-02-05T08:48:16.812Z,43.60
2019-02-05T08:52:22.238Z,43.77
2019-02-05T08:56:27.781Z,41.80
2019-02-05T09:00:35.930Z,51.40
2019-02-05T09:04:41.320Z,37.77
2019-02-05T09:08:46.764Z,44.87
2019-02-05T09:12:52.230Z,40.70
2019-02-05T09:16:57.739Z,41.53
2019-02-05T09:21:03.184Z,34.10
2019-02-05T09:25:09.905Z,39.37
2019-02-05T09:29:15.349Z,37.70
2019-02-05T09:33:21.087Z,36.80
2019-02-05T09:37:26.859Z,37.23
2019-02-05T09:41:32.310Z,36.00
2019-02-05T09:45:37.856Z,38.73
2019-02-05T09:49:43.287Z,43.40
2019-02-05T09:53:48.679Z,35.10
2019-02-05T09:57:54.101Z,33.13
2019-02-05T10:01:59.886Z,37.33
2019-02-05T10:06:05.331Z,37.07
2019-02-05T10:10:13.503Z,37.23
2019-02-05T10:14:18.893Z,32.80
2019-02-05T10:18:24.749Z,31.73
2019-02-05T10:22:34.603Z,29.63
2019-02-05T10:26:40.154Z,36.13
2019-02-05T10:30:46.997Z,36.50
2019-02-05T10:34:52.450Z,28.33
2019-02-05T10:38:58.178Z,30.93
2019-02-05T10:43:03.798Z,31.87
2019-02-05T10:47:09.692Z,34.33
2019-02-05T10:51:15.209Z,26.80
2019-02-05T10:55:21.036Z,29.30
2019-02-05T10:59:26.451Z,29.90
2019-02-05T11:03:32.287Z,27.40
2019-02-05T11:07:38.048Z,26.17
2019-02-05T11:11:43.653Z,31.10
2019-02-05T11:15:49.019Z,31.03
2019-02-05T11:19:54.461Z,29.13
2019-02-05T11:23:59.921Z,28.70
2019-02-05T11:28:05.584Z,30.50
2019-02-05T11:32:11.036Z,30.23
2019-02-05T11:36:16.515Z,31.43
2019-02-05T11:40:28.826Z,32.63
2019-02-05T11:44:34.198Z,28.50
2019-02-05T11:48:39.943Z,31.97
2019-02-05T11:52:45.486Z,32.90
2019-02-05T11:56:51.306Z,23.90
2019-02-05T12:01:02.027Z,27.90
2019-02-05T12:05:08.283Z,28.60
2019-02-05T12:09:24.403Z,30.17
2019-02-05T12:13:29.871Z,26.90
2019-02-05T12:17:35.587Z,24.67
2019-02-05T12:21:41.076Z,26.37
2019-02-05T12:25:47.083Z,31.03
2019-02-05T12:29:53.106Z,28.57
2019-02-05T12:33:58.829Z,36.10
2019-02-05T12:38:04.942Z,26.03
2019-02-05T12:42:10.398Z,30.80
2019-02-05T12:46:15.763Z,23.60
2019-02-05T12:50:24.672Z,24.47
2019-02-05T12:54:30.018Z,28.63
2019-02-05T12:58:35.485Z,27.23
2019-02-05T13:02:40.939Z,25.57
2019-02-05T13:06:46.396Z,30.70
2019-02-05T13:10:53.510Z,27.43
2019-02-05T13:14:58.970Z,28.53
2019-02-05T13:19:04.415Z,27.30
2019-02-05T13:23:10.667Z,28.80
2019-02-05T13:27:16.074Z,29.23
2019-02-05T13:31:21.911Z,26.33
2019-02-05T13:35:27.858Z,28.57
2019-02-05T13:39:33.486Z,24.63
2019-02-05T13:43:39.223Z,24.00
2019-02-05T13:47:44.650Z,28.13
2019-02-05T13:51:50.110Z,26.63
2019-02-05T13:55:56.214Z,28.10
2019-02-05T14:00:01.973Z,28.70
2019-02-05T14:04:07.507Z,26.60
2019-02-05T14:08:13.222Z,28.90
2019-02-05T14:12:21.713Z,25.70
2019-02-05T14:16:26.042Z,28.10
2019-02-05T14:20:31.529Z,23.53
2019-02-05T14:24:40.209Z,23.77
2019-02-05T14:28:45.684Z,20.73
2019-02-05T14:32:51.172Z,23.67
2019-02-05T14:36:56.876Z,23.40
2019-02-05T14:41:02.334Z,26.07
2019-02-05T14:45:09.744Z,24.43
2019-02-05T14:49:15.276Z,25.77
2019-02-05T14:53:20.751Z,22.83
2019-02-05T14:57:26.295Z,25.93
2019-02-05T15:01:42.473Z,24.87
2019-02-05T15:05:39.811Z,23.60
2019-02-05T15:09:45.278Z,27.57
2019-02-05T15:13:50.762Z,23.60
2019-02-05T15:17:56.331Z,23.90
2019-02-05T15:22:01.868Z,24.37
2019-02-05T15:26:07.337Z,22.43
2019-02-05T15:30:23.963Z,23.60
2019-02-05T15:34:30.225Z,21.60
2019-02-05T15:38:36.101Z,19.77
2019-02-05T15:42:41.578Z,20.70
2019-02-05T15:46:47.023Z,17.43
2019-02-05T15:50:52.862Z,19.93
2019-02-05T15:54:58.694Z,20.13
2019-02-05T15:59:04.128Z,19.57
2019-02-05T16:03:10.089Z,21.13
2019-02-05T16:07:15.596Z,18.67
2019-02-05T16:11:21.100Z,19.20
2019-02-05T16:15:26.539Z,20.77
2019-02-05T16:19:32.099Z,19.73
2019-02-05T16:23:37.609Z,20.73
2019-02-05T16:27:43.389Z,19.07
2019-02-05T16:31:49.499Z,20.23
2019-02-05T16:35:55.019Z,19.63
2019-02-05T16:40:00.633Z,19.37
2019-02-05T16:44:06.358Z,19.40
2019-02-05T16:48:11.863Z,17.33
2019-02-05T16:52:17.392Z,18.70
2019-02-05T16:56:23.172Z,20.07
2019-02-05T17:00:33.483Z,19.67
2019-02-05T17:04:39.245Z,20.30
2019-02-05T17:08:44.688Z,20.37
2019-02-05T17:12:50.219Z,21.57
2019-02-05T17:16:55.655Z,20.93
2019-02-05T17:21:01.122Z,22.33
2019-02-05T17:25:09.713Z,20.27
2019-02-05T17:29:15.109Z,23.07
2019-02-05T17:33:20.773Z,24.30
2019-02-05T17:37:26.276Z,22.90
2019-02-05T17:41:31.715Z,25.77
2019-02-05T17:45:39.893Z,25.90
2019-02-05T17:49:45.318Z,27.27
2019-02-05T17:53:51.310Z,25.97
2019-02-05T17:57:56.888Z,28.80
2019-02-05T18:02:02.255Z,29.47
2019-02-05T18:06:08.892Z,28.53
2019-02-05T18:10:17.075Z,29.77
2019-02-05T18:14:22.536Z,31.60
2019-02-05T18:18:27.943Z,29.37
2019-02-05T18:22:33.497Z,31.47
2019-02-05T18:26:39.170Z,32.60
2019-02-05T18:30:44.621Z,30.40
2019-02-05T18:34:50.450Z,33.93
2019-02-05T18:38:56.255Z,29.20
2019-02-05T18:43:01.785Z,32.17
2019-02-05T18:47:07.337Z,33.10
2019-02-05T18:51:12.923Z,30.17
2019-02-05T18:55:18.612Z,30.17
2019-02-05T18:59:24.051Z,29.63
2019-02-05T19:03:29.848Z,30.40
2019-02-05T19:07:35.223Z,40.27
2019-02-05T19:11:40.880Z,46.63
2019-02-05T19:15:46.350Z,46.33
2019-02-05T19:19:52.268Z,43.43
2019-02-05T19:24:06.987Z,37.40
2019-02-05T19:28:19.095Z,30.57
2019-02-05T19:32:28.231Z,24.70
2019-02-05T19:36:33.970Z,26.87
2019-02-05T19:40:39.425Z,23.63
2019-02-05T19:44:51.433Z,23.77
2019-02-05T19:49:05.059Z,20.13
2019-02-05T19:53:10.750Z,21.83
2019-02-05T19:57:16.224Z,24.43
2019-02-05T20:01:22.055Z,25.57
2019-02-05T20:05:27.539Z,25.07
2019-02-05T20:09:32.965Z,24.17
2019-02-05T20:13:40.358Z,23.57
2019-02-05T20:17:45.954Z,26.83
2019-02-05T20:21:51.407Z,23.60
2019-02-05T20:25:57.108Z,24.13
2019-02-05T20:30:02.708Z,22.53
2019-02-05T20:34:08.635Z,22.80
2019-02-05T20:38:14.101Z,22.77
2019-02-05T20:42:19.574Z,22.07
2019-02-05T20:46:25.563Z,24.50
2019-02-05T20:50:30.817Z,22.03
2019-02-05T20:54:36.241Z,27.17
2019-02-05T20:58:41.728Z,24.37
2019-02-05T21:02:47.233Z,25.83
2019-02-05T21:06:53.076Z,26.37
2019-02-05T21:10:58.565Z,32.03
2019-02-05T21:15:05.234Z,33.70
2019-02-05T21:19:10.944Z,33.73
2019-02-05T21:23:16.413Z,34.37
2019-02-05T21:27:21.945Z,33.13
2019-02-05T21:31:27.403Z,36.90
2019-02-05T21:35:32.937Z,35.17
2019-02-05T21:39:38.936Z,35.30
2019-02-05T21:43:44.514Z,38.97
2019-02-05T21:47:49.963Z,35.63
2019-02-05T21:51:55.351Z,35.37
2019-02-05T21:56:01.174Z,34.67
2019-02-05T22:00:33.326Z,37.83
2019-02-05T22:04:38.792Z,32.63
2019-02-05T22:08:44.182Z,33.63
2019-02-05T22:12:49.587Z,34.30
2019-02-05T22:16:55.254Z,36.27
2019-02-05T22:21:02.576Z,29.07
2019-02-05T22:25:13.888Z,29.77
2019-02-05T22:29:19.184Z,30.20
2019-02-05T22:33:24.544Z,27.07
2019-02-05T22:37:31.453Z,25.83
2019-02-05T22:41:36.860Z,29.17
2019-02-05T22:45:42.412Z,28.00
2019-02-05T22:49:47.835Z,28.27
2019-02-05T22:53:53.271Z,26.33
2019-02-05T22:57:59.404Z,26.40
2019-02-05T23:02:06.890Z,26.00
2019-02-05T23:06:57.260Z,25.80
2019-02-05T23:11:45.515Z,24.87
2019-02-05T23:15:52.366Z,22.17
2019-02-05T23:19:57.928Z,22.00
2019-02-05T23:24:03.367Z,24.77
2019-02-05T23:28:09.072Z,24.43
2019-02-05T23:32:14.483Z,27.30
2019-02-05T23:36:19.986Z,31.17
2019-02-05T23:40:25.677Z,25.60
2019-02-05T23:44:31.240Z,31.90
2019-02-05T23:48:38.159Z,30.10
2019-02-05T23:52:43.898Z,28.93
2019-02-05T23:56:49.637Z,31.80
